Syringa, Idaho
Current Conditions -  °F | °C
As of 7:55 PM on Thursday 27 Nov 2014 (Local Time) from KGIC Reporting Station
Broken Clouds Broken Clouds  
Wind Chill: 52°   Ceiling: 10000
Heat Index: 52°   Visibility: 10mi
Dew Point: 36°   Wind: 23mph
Humidity: 56%   Direction: 200°SSW
Pressure: 29.9"   Gusts: 38mph
Location:  46.2989°N, 115.619°W
Report Text: KGIC 280355Z AUTO 20020G33KT 10SM SCT049 BKN100 11/02 A2990 RMK AO1 T01090024
Loading
Personal Weather Stations






























Interactive Weather Map New forecast layout! Learn more

10-Day Weather Forecast

Advertisements
Track Severe Weather on mobile